Terminal Aerodrome Forecast
Issued by NWS

Home | Current Version | Previous Version | Graphics & Text | Print | Product List | Glossary Off
Versions: 1 2 3 4 5 6 7 8 9 10 11 12 13 14 15 16

770
FTUS43 KTOP 232320
TAFMHK
TAF
KMHK 232320Z 2400/2424 18019G28KT P6SM BKN250
     FM241500 19015G26KT P6SM SCT030 BKN150
     FM242000 16012KT P6SM SCT050 BKN150=

USA.gov is the U.S. government's official web portal to all federal, state and local government web resources and services.